Time;durP1;ratioP1;P1;durP2;ratioP2;P2;SDS_P1;SDS_P2;PMS_P1;PMS_P2;Temp;Humidity;BMP_temperature;BMP_pressure;BME280_temperature;BME280_humidity;BME280_pressure;Samples;Min_cycle;Max_cycle;Signal;HPM_P1;HPM_P2
2023/10/15 00:02:06;;;;;;;8.93;2.28;;;8.20;99.90;;;;;;5089033;28;20048;-80
2023/10/15 00:04:33;;;;;;;13.35;2.53;;;8.20;99.90;;;;;;5094368;28;20132;-79
2023/10/15 00:07:05;;;;;;;10.65;3.17;;;8.20;99.90;;;;;;5101774;28;20056;-80
2023/10/15 00:09:32;;;;;;;10.52;2.55;;;8.20;99.90;;;;;;5096613;28;20549;-80
2023/10/15 00:11:59;;;;;;;10.25;2.80;;;8.10;99.90;;;;;;5067949;28;20059;-80
2023/10/15 00:14:25;;;;;;;12.13;2.53;;;8.10;99.90;;;;;;5072975;28;20032;-80
2023/10/15 00:16:51;;;;;;;10.20;2.80;;;8.50;99.90;;;;;;5112000;28;20079;-81
2023/10/15 00:19:16;;;;;;;11.65;3.20;;;8.10;99.90;;;;;;5078263;28;20044;-80
2023/10/15 00:21:42;;;;;;;12.15;2.92;;;8.00;99.90;;;;;;5094084;28;20039;-80
2023/10/15 00:24:10;;;;;;;10.35;3.05;;;8.10;99.90;;;;;;5074016;28;20129;-80
2023/10/15 00:26:38;;;;;;;9.70;2.72;;;8.10;99.90;;;;;;5068008;28;20048;-81
2023/10/15 00:29:08;;;;;;;9.43;2.55;;;8.10;99.90;;;;;;5098390;28;20051;-79
2023/10/15 00:31:34;;;;;;;10.35;2.33;;;8.00;99.90;;;;;;5077104;28;20040;-80
2023/10/15 00:34:00;;;;;;;7.88;2.80;;;8.10;99.90;;;;;;5105394;28;20039;-80
2023/10/15 00:36:27;;;;;;;10.18;2.53;;;8.10;99.90;;;;;;5102871;28;20052;-80
2023/10/15 00:38:53;;;;;;;14.90;3.17;;;8.00;99.90;;;;;;5084373;28;20056;-80
2023/10/15 00:41:19;;;;;;;8.75;2.97;;;8.10;99.90;;;;;;5098614;28;20032;-79
2023/10/15 00:43:55;;;;;;;11.50;2.85;;;8.00;99.90;;;;;;5102285;28;20048;-81
2023/10/15 00:46:27;;;;;;;11.02;3.08;;;8.00;99.90;;;;;;5094287;28;20086;-79
2023/10/15 00:48:56;;;;;;;10.73;2.53;;;8.00;99.90;;;;;;5096116;28;20051;-79
2023/10/15 00:51:23;;;;;;;12.25;2.70;;;8.00;99.90;;;;;;5090648;28;20060;-79
2023/10/15 00:53:54;;;;;;;7.93;2.17;;;7.90;99.90;;;;;;5103680;28;20119;-80
2023/10/15 00:56:22;;;;;;;10.55;2.30;;;8.00;99.90;;;;;;5108536;28;20039;-80
2023/10/15 01:01:26;;;;;;;9.77;2.30;;;8.30;99.90;;;;;;5096858;28;20087;-80
2023/10/15 01:03:59;;;;;;;6.57;2.30;;;7.90;99.90;;;;;;5093962;28;20084;-80
2023/10/15 01:06:35;;;;;;;7.72;2.30;;;8.00;99.90;;;;;;5104940;28;20051;-80
2023/10/15 01:09:09;;;;;;;10.70;2.30;;;7.90;99.90;;;;;;5069156;28;20135;-80
2023/10/15 01:11:56;;;;;;;10.25;2.35;;;8.00;99.90;;;;;;5101518;28;20044;-80
2023/10/15 01:14:32;;;;;;;9.05;2.50;;;8.00;99.90;;;;;;5089392;28;20052;-79
2023/10/15 01:17:02;;;;;;;7.82;2.20;;;8.00;99.90;;;;;;5101094;28;20071;-78
2023/10/15 01:19:32;;;;;;;13.90;2.80;;;8.30;99.90;;;;;;5092053;28;20036;-79
2023/10/15 01:22:08;;;;;;;8.23;2.38;;;8.20;99.90;;;;;;5082443;28;20092;-78
2023/10/15 01:24:38;;;;;;;8.85;2.65;;;8.20;99.90;;;;;;5102284;28;20043;-80
2023/10/15 01:29:44;;;;;;;7.65;2.22;;;8.20;99.90;;;;;;5100506;28;20048;-81
2023/10/15 01:32:19;;;;;;;14.82;3.00;;;8.20;99.90;;;;;;5081961;28;20048;-79
2023/10/15 01:34:45;;;;;;;12.27;3.17;;;9.20;99.90;;;;;;5090261;28;20060;-78
2023/10/15 01:37:30;;;;;;;15.60;2.95;;;8.30;99.90;;;;;;5086790;28;20055;-77
2023/10/15 01:40:01;;;;;;;12.57;3.00;;;8.20;99.90;;;;;;5090498;28;20557;-77
2023/10/15 01:45:17;;;;;;;;;;;8.70;99.90;;;;;;5096672;28;20453;-77
2023/10/15 01:50:23;;;;;;;11.55;2.47;;;7.70;99.90;;;;;;5091206;28;20378;-79
2023/10/15 01:52:49;;;;;;;9.68;2.42;;;7.60;99.90;;;;;;5090825;28;20044;-80
2023/10/15 01:55:17;;;;;;;14.85;3.03;;;7.60;99.90;;;;;;5087977;28;20089;-79
2023/10/15 01:57:43;;;;;;;12.55;2.63;;;7.50;99.90;;;;;;5072036;28;20052;-78
2023/10/15 02:00:32;;;;;;;11.50;2.50;;;7.50;99.90;;;;;;5089793;28;20056;-79
2023/10/15 02:02:59;;;;;;;17.88;3.13;;;7.40;99.90;;;;;;5088830;28;20083;-78
2023/10/15 02:05:40;;;;;;;9.48;2.42;;;7.40;99.90;;;;;;5078883;28;20126;-79
2023/10/15 02:08:12;;;;;;;13.45;3.28;;;7.30;99.90;;;;;;5117385;28;20043;-79
2023/10/15 02:10:39;;;;;;;12.90;3.25;;;7.30;99.90;;;;;;5094932;28;20079;-80
2023/10/15 02:13:08;;;;;;;11.10;2.83;;;7.30;99.90;;;;;;5107402;27;20057;-79
2023/10/15 02:15:38;;;;;;;;;;;7.20;99.90;;;;;;5112447;28;20046;-80
2023/10/15 02:18:05;;;;;;;15.35;3.33;;;7.20;99.90;;;;;;5098118;28;19959;-80
2023/10/15 02:21:00;;;;;;;15.77;3.47;;;7.20;99.90;;;;;;5121526;28;20049;-81
2023/10/15 02:23:27;;;;;;;16.65;4.05;;;7.10;99.90;;;;;;5109800;28;20050;-80
2023/10/15 02:25:57;;;;;;;16.38;4.80;;;8.10;99.90;;;;;;5113331;28;20044;-79
2023/10/15 02:28:27;;;;;;;20.63;4.63;;;7.00;99.90;;;;;;5089741;28;20496;-80
2023/10/15 02:31:00;;;;;;;16.73;4.85;;;7.60;99.90;;;;;;5074193;28;20067;-80
2023/10/15 02:33:27;;;;;;;17.30;3.90;;;7.00;99.90;;;;;;5084389;28;20040;-80
2023/10/15 02:35:59;;;;;;;13.90;3.92;;;7.00;99.90;;;;;;5100879;28;20098;-81
2023/10/15 02:38:34;;;;;;;16.48;4.20;;;7.20;99.90;;;;;;5108628;28;20395;-81
2023/10/15 02:41:04;;;;;;;17.65;3.85;;;7.00;99.90;;;;;;5091108;28;20378;-81
2023/10/15 02:43:31;;;;;;;13.25;3.20;;;7.10;99.90;;;;;;5105465;28;20040;-81
2023/10/15 02:46:22;;;;;;;11.20;3.53;;;7.10;99.90;;;;;;5104388;28;20164;-79
2023/10/15 02:48:48;;;;;;;13.90;3.20;;;7.10;99.90;;;;;;5105697;28;20063;-80
2023/10/15 02:51:23;;;;;;;12.23;3.10;;;7.10;99.90;;;;;;5113545;28;20044;-80
2023/10/15 02:53:53;;;;;;;17.35;2.95;;;7.10;99.90;;;;;;5093024;28;20084;-79
2023/10/15 02:56:23;;;;;;;10.15;2.28;;;7.20;99.90;;;;;;5092383;28;20043;-81
2023/10/15 02:58:50;;;;;;;10.32;2.58;;;7.10;99.90;;;;;;5102188;28;20052;-81
2023/10/15 03:01:19;;;;;;;11.80;2.92;;;7.20;99.90;;;;;;5099314;28;20056;-81
2023/10/15 03:03:52;;;;;;;10.15;2.55;;;7.20;99.90;;;;;;5104608;28;20048;-80
2023/10/15 03:06:28;;;;;;;8.57;2.28;;;7.20;99.90;;;;;;5085459;28;20074;-81
2023/10/15 03:08:56;;;;;;;9.80;2.25;;;7.20;99.90;;;;;;5099651;28;20125;-80
2023/10/15 03:11:23;;;;;;;11.90;2.17;;;7.20;99.90;;;;;;5101533;28;20052;-79
2023/10/15 03:13:56;;;;;;;13.95;2.05;;;7.20;99.90;;;;;;5113118;28;20051;-79
2023/10/15 03:16:24;;;;;;;6.85;1.98;;;7.10;99.90;;;;;;5106968;28;20552;-79
2023/10/15 03:18:51;;;;;;;7.15;1.63;;;7.10;99.90;;;;;;5068499;28;20074;-79
2023/10/15 03:21:25;;;;;;;10.77;2.00;;;7.10;99.90;;;;;;5104711;28;20054;-79
2023/10/15 03:23:56;;;;;;;10.32;2.58;;;7.20;99.90;;;;;;5107163;28;20043;-81
2023/10/15 03:26:36;;;;;;;11.30;2.42;;;7.10;99.90;;;;;;5088496;28;20055;-81
2023/10/15 03:29:09;;;;;;;12.15;2.33;;;7.10;99.90;;;;;;5109858;28;20040;-80
2023/10/15 03:31:37;;;;;;;7.55;1.90;;;7.10;99.90;;;;;;5077689;28;20044;-81
2023/10/15 03:36:42;;;;;;;6.15;1.60;;;7.10;99.90;;;;;;5094225;28;20102;-79
2023/10/15 03:39:15;;;;;;;9.35;1.73;;;7.10;99.90;;;;;;5063331;28;20067;-76
2023/10/15 03:41:49;;;;;;;7.90;1.70;;;7.00;99.90;;;;;;5081472;28;20418;-78
2023/10/15 03:44:23;;;;;;;10.40;1.83;;;7.00;99.90;;;;;;5095598;28;20111;-77
2023/10/15 03:46:48;;;;;;;10.55;2.05;;;7.00;99.90;;;;;;5118352;28;20062;-78
2023/10/15 03:49:20;;;;;;;9.05;1.67;;;7.00;99.90;;;;;;5117700;28;20036;-76
2023/10/15 03:51:48;;;;;;;10.15;2.17;;;7.00;99.90;;;;;;5094512;28;20131;-78
2023/10/15 03:54:14;;;;;;;;;;;7.00;99.90;;;;;;5109611;28;20494;-77
2023/10/15 03:56:43;;;;;;;6.10;2.10;;;7.00;99.90;;;;;;5100706;28;19930;-77
2023/10/15 03:59:11;;;;;;;5.43;1.45;;;7.00;99.90;;;;;;5096717;28;20501;-78
2023/10/15 04:01:43;;;;;;;5.45;1.48;;;7.10;99.90;;;;;;5091321;28;20052;-78
2023/10/15 04:04:10;;;;;;;6.40;1.50;;;7.00;99.90;;;;;;5086928;28;20040;-80
2023/10/15 04:06:36;;;;;;;7.25;1.38;;;7.00;99.90;;;;;;5093227;28;20047;-77
2023/10/15 04:11:45;;;;;;;4.35;1.25;;;7.00;99.90;;;;;;5097371;28;20058;-78
2023/10/15 04:14:30;;;;;;;5.55;1.55;;;7.00;99.90;;;;;;5102446;28;20044;-78
2023/10/15 04:16:59;;;;;;;5.15;1.48;;;7.00;99.90;;;;;;5091437;28;20066;-80
2023/10/15 04:19:26;;;;;;;7.60;1.50;;;7.00;99.90;;;;;;5090130;28;20045;-80
2023/10/15 04:21:53;;;;;;;4.47;1.52;;;7.00;99.90;;;;;;5092804;28;20079;-78
2023/10/15 04:24:36;;;;;;;3.20;1.17;;;7.00;99.90;;;;;;5077583;28;20126;-78
2023/10/15 04:27:03;;;;;;;6.35;1.35;;;7.00;99.90;;;;;;5090526;28;20056;-79
2023/10/15 04:29:30;;;;;;;6.75;1.75;;;7.00;99.90;;;;;;5111272;28;20051;-78
2023/10/15 04:32:09;;;;;;;4.03;1.23;;;7.00;99.90;;;;;;5061032;28;20048;-79
2023/10/15 04:34:36;;;;;;;3.97;1.20;;;7.00;99.90;;;;;;5097081;28;20044;-79
2023/10/15 04:37:16;;;;;;;3.17;1.20;;;6.90;99.90;;;;;;5094157;28;20067;-80
2023/10/15 04:39:55;;;;;;;6.30;1.85;;;7.20;99.90;;;;;;5100352;28;20055;-80
2023/10/15 04:42:21;;;;;;;5.93;1.83;;;6.90;99.90;;;;;;5107957;28;20039;-79
2023/10/15 04:44:51;;;;;;;7.13;2.05;;;6.90;99.90;;;;;;5098661;28;20091;-80
2023/10/15 04:48:00;;;;;;;6.15;2.28;;;6.90;99.90;;;;;;5118192;28;20042;-79
2023/10/15 04:50:29;;;;;;;7.95;1.70;;;6.90;99.90;;;;;;5094346;28;20129;-80
2023/10/15 04:53:12;;;;;;;7.18;1.60;;;6.90;99.90;;;;;;5097241;28;20538;-79
2023/10/15 04:55:41;;;;;;;5.25;1.70;;;6.90;99.90;;;;;;5086537;28;20060;-79
2023/10/15 04:58:07;;;;;;;7.95;1.90;;;6.90;99.90;;;;;;5092228;28;20040;-79
2023/10/15 05:00:35;;;;;;;10.15;1.98;;;6.90;99.90;;;;;;5095163;28;20553;-77
2023/10/15 05:03:01;;;;;;;6.82;1.88;;;6.90;99.90;;;;;;5082671;28;20408;-80
2023/10/15 05:05:26;;;;;;;8.95;2.03;;;6.90;99.90;;;;;;5091885;28;20072;-80
2023/10/15 05:08:10;;;;;;;6.20;1.92;;;6.90;99.90;;;;;;5084189;28;20048;-80
2023/10/15 05:10:49;;;;;;;9.10;1.77;;;6.90;99.90;;;;;;5088869;28;20829;-79
2023/10/15 05:13:17;;;;;;;7.45;2.17;;;6.80;99.90;;;;;;5088692;28;20036;-81
2023/10/15 05:15:49;;;;;;;10.30;2.05;;;6.90;99.90;;;;;;5101500;28;20036;-80
2023/10/15 05:18:18;;;;;;;10.18;2.47;;;6.80;99.90;;;;;;5081341;28;20048;-80
2023/10/15 05:20:44;;;;;;;8.60;2.40;;;6.80;99.90;;;;;;5086649;28;20052;-80
2023/10/15 05:23:11;;;;;;;10.75;2.38;;;6.80;99.90;;;;;;5106733;28;20055;-79
2023/10/15 05:25:40;;;;;;;5.10;2.15;;;6.80;99.90;;;;;;5103034;28;20570;-80
2023/10/15 05:28:06;;;;;;;8.65;1.90;;;6.80;99.90;;;;;;5103028;28;20116;-80
2023/10/15 05:30:33;;;;;;;9.30;1.92;;;6.90;99.90;;;;;;5103071;28;20440;-80
2023/10/15 05:33:04;;;;;;;7.90;1.90;;;6.90;99.90;;;;;;5101068;28;20462;-80
2023/10/15 05:35:29;;;;;;;11.60;2.35;;;6.80;99.90;;;;;;5098172;28;20437;-80
2023/10/15 05:37:55;;;;;;;8.15;2.85;;;6.80;99.90;;;;;;5089345;28;20042;-81
2023/10/15 05:40:21;;;;;;;8.65;2.70;;;6.90;99.90;;;;;;5103339;28;20397;-79
2023/10/15 05:42:48;;;;;;;13.80;4.07;;;6.90;99.90;;;;;;5100289;28;20051;-80
2023/10/15 05:45:15;;;;;;;8.52;3.08;;;6.90;99.90;;;;;;5081886;28;20100;-80
2023/10/15 05:47:44;;;;;;;9.38;2.78;;;6.90;99.90;;;;;;5107493;28;20063;-80
2023/10/15 05:50:12;;;;;;;8.10;2.58;;;7.00;99.90;;;;;;5095825;28;20048;-80
2023/10/15 05:52:43;;;;;;;13.73;3.15;;;7.00;99.90;;;;;;5107700;28;20040;-78
2023/10/15 05:55:11;;;;;;;9.88;1.88;;;7.00;99.90;;;;;;5076086;28;20043;-77
2023/10/15 05:57:37;;;;;;;11.70;2.15;;;7.00;99.90;;;;;;5100802;28;20529;-79
2023/10/15 06:00:17;;;;;;;11.45;2.00;;;7.80;99.90;;;;;;5083696;28;20052;-79
2023/10/15 06:02:47;;;;;;;6.78;1.65;;;6.80;99.90;;;;;;5106267;28;20185;-79
2023/10/15 06:05:16;;;;;;;9.27;1.60;;;6.80;99.90;;;;;;5110758;28;20067;-77
2023/10/15 06:07:43;;;;;;;9.98;1.70;;;6.80;99.90;;;;;;5061837;28;20049;-78
2023/10/15 06:10:11;;;;;;;9.70;1.83;;;6.80;99.90;;;;;;5075937;28;20040;-78
2023/10/15 06:12:41;;;;;;;7.65;1.63;;;6.70;99.90;;;;;;5103704;28;20042;-79
2023/10/15 06:15:09;;;;;;;9.50;1.90;;;6.80;99.90;;;;;;5091623;28;20400;-80
2023/10/15 06:17:38;;;;;;;6.00;1.83;;;6.70;99.90;;;;;;5093764;28;20051;-80
2023/10/15 06:20:13;;;;;;;12.55;1.77;;;6.80;99.90;;;;;;5088544;28;20040;-80
2023/10/15 06:22:43;;;;;;;10.63;2.63;;;6.80;99.90;;;;;;5084075;28;20067;-80
2023/10/15 06:25:11;;;;;;;8.18;1.92;;;6.80;99.90;;;;;;5090213;28;20040;-79
2023/10/15 06:27:38;;;;;;;6.05;2.25;;;6.90;99.90;;;;;;5098472;28;20529;-79
2023/10/15 06:30:05;;;;;;;10.20;2.10;;;6.80;99.90;;;;;;5088585;28;20049;-79
2023/10/15 06:32:31;;;;;;;10.32;2.10;;;6.80;99.90;;;;;;5085307;28;20048;-80
2023/10/15 06:34:58;;;;;;;7.03;2.20;;;6.80;99.90;;;;;;5093801;28;20040;-78
2023/10/15 06:37:23;;;;;;;8.13;1.90;;;6.80;99.90;;;;;;5104646;28;20036;-77
2023/10/15 06:39:49;;;;;;;6.97;2.00;;;6.80;99.90;;;;;;5102112;27;20047;-79
2023/10/15 06:42:15;;;;;;;13.07;2.33;;;6.70;99.90;;;;;;5081740;28;20052;-78
2023/10/15 06:44:40;;;;;;;10.95;2.00;;;7.20;99.90;;;;;;5096594;28;20044;-79
2023/10/15 06:47:09;;;;;;;7.40;1.77;;;6.70;99.90;;;;;;5083120;28;20074;-80
2023/10/15 06:49:35;;;;;;;12.70;2.10;;;6.80;99.90;;;;;;5098613;28;20048;-79
2023/10/15 06:52:03;;;;;;;7.65;1.95;;;6.70;99.90;;;;;;5100260;28;20070;-79
2023/10/15 06:54:29;;;;;;;11.73;2.08;;;6.80;99.90;;;;;;5078850;28;20095;-80
2023/10/15 06:56:55;;;;;;;12.75;2.45;;;6.80;99.90;;;;;;5083846;28;20055;-79
2023/10/15 06:59:20;;;;;;;12.52;2.50;;;6.80;99.90;;;;;;5094764;28;20058;-79
2023/10/15 07:01:46;;;;;;;9.73;2.55;;;6.90;99.90;;;;;;5092366;28;20053;-78
2023/10/15 07:04:12;;;;;;;10.82;3.45;;;6.90;99.90;;;;;;5080059;28;20049;-78
2023/10/15 07:06:39;;;;;;;6.90;2.22;;;7.00;99.90;;;;;;5090743;28;20099;-80
2023/10/15 07:09:06;;;;;;;11.10;2.67;;;7.00;99.90;;;;;;5083859;28;20377;-80
2023/10/15 07:11:32;;;;;;;7.18;2.28;;;7.10;99.90;;;;;;5095074;28;20115;-79
2023/10/15 07:13:58;;;;;;;8.75;2.58;;;7.10;99.90;;;;;;5087227;28;20044;-79
2023/10/15 07:16:24;;;;;;;14.52;2.42;;;7.00;99.90;;;;;;5098001;28;20076;-77
2023/10/15 07:18:50;;;;;;;13.02;2.38;;;7.00;99.90;;;;;;5076197;28;20075;-76
2023/10/15 07:21:17;;;;;;;10.60;2.55;;;7.00;99.90;;;;;;5094140;28;20040;-77
2023/10/15 07:23:43;;;;;;;9.93;2.40;;;7.60;99.90;;;;;;5087761;28;20047;-77
2023/10/15 07:26:09;;;;;;;8.75;1.88;;;6.90;99.90;;;;;;5084127;28;20441;-77
2023/10/15 07:28:35;;;;;;;8.55;1.58;;;6.90;99.90;;;;;;5094741;28;20377;-77
2023/10/15 07:31:00;;;;;;;6.25;2.03;;;6.90;99.90;;;;;;5089434;28;20067;-78
2023/10/15 07:33:27;;;;;;;9.25;2.28;;;6.90;99.90;;;;;;5094723;28;20052;-78
2023/10/15 07:35:52;;;;;;;9.95;2.20;;;7.00;99.90;;;;;;5096119;28;20063;-79
2023/10/15 07:38:18;;;;;;;6.50;1.60;;;7.00;99.90;;;;;;5093393;28;20043;-79
2023/10/15 07:40:44;;;;;;;6.32;1.90;;;7.00;99.90;;;;;;5105022;28;20036;-78
2023/10/15 07:43:11;;;;;;;7.70;1.80;;;7.00;99.90;;;;;;5088703;28;20459;-79
2023/10/15 07:45:38;;;;;;;11.35;2.30;;;7.10;99.90;;;;;;5093977;28;20052;-79
2023/10/15 07:48:04;;;;;;;13.02;2.17;;;7.00;99.90;;;;;;5085889;28;20054;-79
2023/10/15 07:50:32;;;;;;;5.95;1.92;;;7.10;99.90;;;;;;5082801;28;20117;-79
2023/10/15 07:52:58;;;;;;;7.87;1.87;;;7.10;99.90;;;;;;5057898;28;20049;-79
2023/10/15 07:55:25;;;;;;;7.18;1.75;;;7.10;99.90;;;;;;5090089;28;20310;-79
2023/10/15 07:57:51;;;;;;;12.95;2.33;;;7.10;99.90;;;;;;5093338;28;20108;-79
2023/10/15 08:00:22;;;;;;;10.00;2.03;;;7.10;99.90;;;;;;5095251;28;20060;-79
2023/10/15 08:02:52;;;;;;;9.40;1.70;;;7.20;99.90;;;;;;5098545;28;20048;-80
2023/10/15 08:05:24;;;;;;;3.97;1.70;;;7.30;99.90;;;;;;5088127;28;20044;-79
2023/10/15 08:07:51;;;;;;;5.80;1.50;;;7.30;99.90;;;;;;5097154;28;20052;-80
2023/10/15 08:10:23;;;;;;;5.18;1.70;;;7.40;99.90;;;;;;5100360;28;20051;-79
2023/10/15 08:12:53;;;;;;;10.45;2.53;;;7.40;99.90;;;;;;5078879;28;20112;-81
2023/10/15 08:15:20;;;;;;;8.80;2.47;;;7.40;99.90;;;;;;5103031;28;20036;-79
2023/10/15 08:17:48;;;;;;;14.57;2.90;;;7.40;99.90;;;;;;5103096;28;20040;-78
2023/10/15 08:20:32;;;;;;;7.95;2.75;;;7.30;99.90;;;;;;5086721;28;20098;-80
2023/10/15 08:22:57;;;;;;;9.52;2.10;;;7.40;99.90;;;;;;5106176;28;20478;-80
2023/10/15 08:25:23;;;;;;;7.85;2.25;;;7.50;99.90;;;;;;5121601;28;20055;-80
2023/10/15 08:27:49;;;;;;;8.98;2.10;;;7.70;99.90;;;;;;5109266;28;20050;-80
2023/10/15 08:30:17;;;;;;;8.85;2.30;;;8.00;99.90;;;;;;5092821;28;20520;-80
2023/10/15 08:32:44;;;;;;;7.50;2.17;;;8.60;99.90;;;;;;5129908;28;20113;-80
2023/10/15 08:35:13;;;;;;;14.32;2.28;;;8.60;99.90;;;;;;5127421;28;20462;-80
2023/10/15 08:37:42;;;;;;;8.63;1.88;;;8.80;99.90;;;;;;5118017;28;20409;-81
2023/10/15 08:40:15;;;;;;;7.65;2.00;;;8.80;99.90;;;;;;5088535;28;20064;-78
2023/10/15 08:43:02;;;;;;;13.07;3.22;;;8.60;99.90;;;;;;5093277;28;20501;-78
2023/10/15 08:45:29;;;;;;;7.75;2.00;;;8.40;99.90;;;;;;5078120;28;20065;-76
2023/10/15 08:47:56;;;;;;;10.38;2.50;;;8.30;99.90;;;;;;5095267;28;20093;-78
2023/10/15 08:50:22;;;;;;;8.80;2.05;;;8.10;99.90;;;;;;5093947;28;20040;-78
2023/10/15 08:52:52;;;;;;;6.65;1.70;;;7.90;99.90;;;;;;5087154;28;20044;-76
2023/10/15 08:55:22;;;;;;;6.38;1.67;;;7.70;99.90;;;;;;5089680;28;20049;-77
2023/10/15 08:57:54;;;;;;;6.88;1.60;;;7.60;99.90;;;;;;5088795;28;20048;-77
2023/10/15 09:00:28;;;;;;;9.05;1.80;;;7.40;99.90;;;;;;5092363;28;20048;-77
2023/10/15 09:02:56;;;;;;;6.03;1.48;;;7.50;99.90;;;;;;5072890;28;20045;-77
2023/10/15 09:05:22;;;;;;;6.03;1.92;;;7.30;99.90;;;;;;5087843;28;20037;-80
2023/10/15 09:07:52;;;;;;;10.90;1.60;;;7.30;99.90;;;;;;5086340;28;20051;-79
2023/10/15 09:10:17;;;;;;;10.02;1.75;;;7.30;99.90;;;;;;5092959;28;20036;-78
2023/10/15 09:12:43;;;;;;;6.32;1.55;;;7.30;99.90;;;;;;5087298;28;20036;-80
2023/10/15 09:15:19;;;;;;;8.18;1.60;;;7.30;99.90;;;;;;5099684;28;20044;-79
2023/10/15 09:17:58;;;;;;;7.50;1.55;;;7.40;99.90;;;;;;5099899;28;20061;-79
2023/10/15 09:20:27;;;;;;;;;;;7.70;99.90;;;;;;5097280;28;20036;-78
2023/10/15 09:22:58;;;;;;;8.07;1.88;;;8.00;99.90;;;;;;5094805;28;19935;-80
2023/10/15 09:25:30;;;;;;;9.18;1.98;;;8.30;99.90;;;;;;5105045;28;20047;-77
2023/10/15 09:27:57;;;;;;;8.93;1.80;;;8.80;99.90;;;;;;5091797;28;20040;-80
2023/10/15 09:30:27;;;;;;;6.03;1.52;;;9.10;99.90;;;;;;5095697;28;20073;-80
2023/10/15 09:32:54;;;;;;;6.53;1.90;;;9.50;99.90;;;;;;5105757;28;20386;-79
2023/10/15 09:35:24;;;;;;;9.70;2.20;;;9.70;99.90;;;;;;5120870;28;20043;-78
2023/10/15 09:37:50;;;;;;;6.47;2.35;;;10.00;99.90;;;;;;5115870;28;20644;-80
2023/10/15 09:40:19;;;;;;;9.48;1.92;;;11.40;99.90;;;;;;5096340;28;20058;-78
2023/10/15 09:42:55;;;;;;;9.70;1.58;;;11.10;99.90;;;;;;5115063;28;20044;-80
2023/10/15 09:45:23;;;;;;;4.85;1.40;;;10.90;99.90;;;;;;5105347;28;20427;-79
2023/10/15 09:48:03;;;;;;;6.82;1.90;;;11.20;99.90;;;;;;5089012;28;20055;-80
2023/10/15 09:50:31;;;;;;;6.57;1.80;;;11.30;99.90;;;;;;5083111;28;20040;-79
2023/10/15 09:53:09;;;;;;;11.15;1.70;;;11.50;99.90;;;;;;5079040;28;20040;-80
2023/10/15 09:55:35;;;;;;;9.48;1.70;;;11.80;99.90;;;;;;5097569;28;20505;-80
2023/10/15 09:58:04;;;;;;;8.00;1.70;;;12.10;99.90;;;;;;5095277;28;20060;-80
2023/10/15 10:03:32;;;;;;;8.02;1.67;;;12.50;99.90;;;;;;5093843;28;20056;-81
2023/10/15 10:06:37;;;;;;;6.85;1.27;;;12.60;99.90;;;;;;5089087;28;20047;-79
2023/10/15 10:09:24;;;;;;;6.75;1.88;;;13.00;99.90;;;;;;5113216;28;20044;-80
2023/10/15 10:12:13;;;;;;;9.10;2.20;;;13.40;99.90;;;;;;5085730;28;20044;-82
2023/10/15 10:15:22;;;;;;;9.32;1.75;;;13.80;99.90;;;;;;5097933;28;20048;-80
2023/10/15 10:17:52;;;;;;;6.80;1.48;;;13.70;99.90;;;;;;5101717;28;20369;-78
2023/10/15 10:20:19;;;;;;;7.50;1.75;;;13.60;99.90;;;;;;5092322;28;20097;-78
2023/10/15 10:22:58;;;;;;;8.93;1.50;;;13.00;99.90;;;;;;5099686;28;20067;-78
2023/10/15 10:25:31;;;;;;;6.88;1.48;;;12.40;99.90;;;;;;5101474;28;20335;-78
2023/10/15 10:28:06;;;;;;;13.38;1.83;;;11.70;99.90;;;;;;5092247;28;20498;-78
2023/10/15 10:30:32;;;;;;;9.23;1.38;;;11.30;99.90;;;;;;5111275;28;20088;-79
2023/10/15 10:33:01;;;;;;;10.05;1.90;;;11.30;99.90;;;;;;5119828;28;20449;-78
2023/10/15 10:35:28;;;;;;;6.85;1.50;;;11.50;99.90;;;;;;5105682;28;20082;-79
2023/10/15 10:38:10;;;;;;;4.55;1.30;;;11.70;99.90;;;;;;5099685;28;20044;-80
2023/10/15 10:40:47;;;;;;;5.22;1.70;;;12.00;99.90;;;;;;5097076;28;20055;-80
2023/10/15 10:43:17;;;;;;;3.70;1.23;;;12.40;99.90;;;;;;5101887;28;20032;-80
2023/10/15 10:45:57;;;;;;;7.70;1.55;;;13.00;99.90;;;;;;5112752;28;20075;-79
2023/10/15 10:48:37;;;;;;;4.53;1.17;;;12.90;99.90;;;;;;5105514;28;20051;-80
2023/10/15 10:51:12;;;;;;;4.95;1.52;;;12.60;99.90;;;;;;5124523;27;20044;-79
2023/10/15 10:53:56;;;;;;;6.53;1.42;;;12.10;99.90;;;;;;5120337;28;20085;-78
2023/10/15 10:56:39;;;;;;;10.43;1.70;;;11.90;99.90;;;;;;5097560;28;20052;-79
2023/10/15 10:59:09;;;;;;;11.90;1.75;;;11.40;99.90;;;;;;5092808;28;20039;-80
2023/10/15 11:01:45;;;;;;;5.78;1.60;;;11.30;99.90;;;;;;5082588;28;20052;-78
2023/10/15 11:04:17;;;;;;;6.22;1.40;;;11.20;99.90;;;;;;5081406;28;20047;-81
2023/10/15 11:06:48;;;;;;;6.80;1.52;;;11.00;99.90;;;;;;5088746;28;20045;-80
2023/10/15 11:09:20;;;;;;;4.82;1.58;;;11.20;99.90;;;;;;5102438;28;20051;-83
2023/10/15 11:11:51;;;;;;;6.00;1.48;;;11.20;99.90;;;;;;5099154;28;20047;-81
2023/10/15 11:14:22;;;;;;;9.10;1.77;;;11.00;99.90;;;;;;5104704;28;20036;-81
2023/10/15 11:16:54;;;;;;;5.63;1.38;;;10.70;99.90;;;;;;5098890;28;20050;-80
2023/10/15 11:19:21;;;;;;;7.28;1.58;;;11.60;99.90;;;;;;5095361;28;20045;-80
2023/10/15 11:21:49;;;;;;;7.32;1.40;;;11.90;99.90;;;;;;5105253;28;20103;-81
2023/10/15 11:24:16;;;;;;;5.18;1.60;;;13.40;99.90;;;;;;5086060;28;20040;-80
2023/10/15 11:26:43;;;;;;;10.82;1.63;;;13.60;99.90;;;;;;5094184;28;20125;-80
2023/10/15 11:29:10;;;;;;;6.93;1.70;;;13.80;99.90;;;;;;5099778;28;20036;-82
2023/10/15 11:31:45;;;;;;;6.28;1.52;;;13.70;99.90;;;;;;5094300;28;20029;-80
2023/10/15 11:34:35;;;;;;;6.63;1.63;;;13.40;99.90;;;;;;5071208;28;20065;-80
2023/10/15 11:37:02;;;;;;;13.43;1.98;;;12.90;99.90;;;;;;5094433;28;20150;-81
2023/10/15 11:39:47;;;;;;;6.65;1.80;;;12.50;99.90;;;;;;5083094;28;20028;-80
2023/10/15 11:42:14;;;;;;;8.30;1.60;;;12.20;99.90;;;;;;5105885;28;20040;-81
2023/10/15 11:44:44;;;;;;;12.18;1.90;;;11.70;99.90;;;;;;5106288;28;20093;-80
2023/10/15 11:47:16;;;;;;;9.40;1.65;;;11.50;99.90;;;;;;5097474;28;20082;-79
2023/10/15 11:49:42;;;;;;;8.95;2.67;;;11.40;99.90;;;;;;5090418;28;20036;-79
2023/10/15 11:52:12;;;;;;;8.98;2.05;;;11.40;99.90;;;;;;5099482;28;20032;-78
2023/10/15 11:54:43;;;;;;;7.28;1.73;;;11.30;99.90;;;;;;5101384;28;20077;-77
2023/10/15 11:57:20;;;;;;;7.47;1.70;;;11.50;99.90;;;;;;5077608;28;20036;-79
2023/10/15 11:59:48;;;;;;;10.52;2.10;;;12.00;99.90;;;;;;5100551;28;20149;-80
2023/10/15 12:02:14;;;;;;;;;;;12.30;99.90;;;;;;5087957;28;20071;-81
2023/10/15 12:04:40;;;;;;;4.95;1.85;;;12.30;99.90;;;;;;5110087;28;19982;-80
2023/10/15 12:07:11;;;;;;;10.88;2.22;;;12.10;99.90;;;;;;5098820;28;20040;-81
2023/10/15 12:09:39;;;;;;;9.52;2.17;;;12.90;99.90;;;;;;5095897;28;20118;-80
2023/10/15 12:12:07;;;;;;;11.82;2.08;;;12.20;99.90;;;;;;5105888;28;20036;-80
2023/10/15 12:14:33;;;;;;;6.97;1.90;;;11.50;99.90;;;;;;5104028;28;20040;-80
2023/10/15 12:16:59;;;;;;;9.10;1.92;;;11.20;99.90;;;;;;5107357;28;20042;-80
2023/10/15 12:19:24;;;;;;;8.60;1.90;;;11.10;99.90;;;;;;5100347;28;20111;-80
2023/10/15 12:21:50;;;;;;;8.75;2.13;;;10.90;99.90;;;;;;5108087;28;20048;-81
2023/10/15 12:24:20;;;;;;;5.82;1.67;;;10.80;99.90;;;;;;5091137;28;20036;-80
2023/10/15 12:26:46;;;;;;;14.45;2.13;;;11.40;99.90;;;;;;5099738;28;20478;-80
2023/10/15 12:29:13;;;;;;;14.07;2.50;;;10.90;99.90;;;;;;5071585;28;20128;-81
2023/10/15 12:31:43;;;;;;;5.97;1.60;;;10.90;99.90;;;;;;5092834;28;20094;-81
2023/10/15 12:34:12;;;;;;;10.90;2.20;;;10.90;99.90;;;;;;5106938;28;20040;-79
2023/10/15 12:36:38;;;;;;;8.20;1.58;;;11.00;99.90;;;;;;5106308;28;20044;-81
2023/10/15 12:39:05;;;;;;;8.05;1.63;;;11.10;99.90;;;;;;5100836;28;20090;-81
2023/10/15 12:41:34;;;;;;;12.00;1.63;;;11.30;99.90;;;;;;5088195;28;20141;-79
2023/10/15 12:44:00;;;;;;;5.88;1.30;;;11.30;99.90;;;;;;5103327;28;20044;-79
2023/10/15 12:46:29;;;;;;;6.20;1.50;;;12.60;99.90;;;;;;5096069;28;20061;-80
2023/10/15 12:48:56;;;;;;;3.90;1.10;;;11.30;99.90;;;;;;5088410;28;20108;-80
2023/10/15 12:51:22;;;;;;;9.00;1.52;;;11.20;99.90;;;;;;5074956;28;20111;-79
2023/10/15 12:53:48;;;;;;;8.52;1.50;;;11.10;99.90;;;;;;5085900;28;20051;-81
2023/10/15 12:56:14;;;;;;;4.30;1.88;;;11.00;99.90;;;;;;5106459;28;20373;-80
2023/10/15 12:58:40;;;;;;;5.68;1.40;;;10.90;99.90;;;;;;5099713;28;20131;-79
2023/10/15 13:01:07;;;;;;;4.50;1.23;;;11.50;99.90;;;;;;5087625;28;20053;-79
2023/10/15 13:03:33;;;;;;;5.95;1.65;;;10.80;99.90;;;;;;5086198;28;20047;-80
2023/10/15 13:05:59;;;;;;;7.68;2.17;;;10.70;99.90;;;;;;5088242;28;20040;-81
2023/10/15 13:08:25;;;;;;;8.77;2.67;;;11.40;99.90;;;;;;5095665;28;20071;-78
2023/10/15 13:10:51;;;;;;;6.15;1.77;;;10.60;99.90;;;;;;5106072;28;20123;-80
2023/10/15 13:13:17;;;;;;;10.98;2.28;;;10.60;99.90;;;;;;5088251;28;20044;-80
2023/10/15 13:15:43;;;;;;;5.88;1.75;;;10.60;99.90;;;;;;5085472;28;20051;-80
2023/10/15 13:18:08;;;;;;;10.07;1.95;;;10.60;99.90;;;;;;5101697;28;20409;-80
2023/10/15 13:20:34;;;;;;;8.15;2.13;;;10.60;99.90;;;;;;5100866;28;20036;-79
2023/10/15 13:23:00;;;;;;;9.50;1.90;;;10.60;99.90;;;;;;5109216;28;20538;-80
2023/10/15 13:25:25;;;;;;;11.10;2.10;;;10.60;99.90;;;;;;5115378;28;20040;-79
2023/10/15 13:27:51;;;;;;;9.48;2.30;;;10.60;99.90;;;;;;5092658;28;20061;-79